sensor_id;sensor_type;location;lat;lon;timestamp;P1;durP1;ratioP1;P2;durP2;ratioP2
36691;SDS011;22678;52.052;4.242;2023-05-10T00:01:15;17.00;;;11.70;;
36691;SDS011;22678;52.052;4.242;2023-05-10T00:03:40;23.88;;;12.77;;
36691;SDS011;22678;52.052;4.242;2023-05-10T00:06:06;20.83;;;13.43;;
36691;SDS011;22678;52.052;4.242;2023-05-10T00:08:31;18.67;;;13.27;;
36691;SDS011;22678;52.052;4.242;2023-05-10T00:10:56;18.55;;;13.77;;
36691;SDS011;22678;52.052;4.242;2023-05-10T00:13:22;21.08;;;11.90;;
36691;SDS011;22678;52.052;4.242;2023-05-10T00:15:47;13.68;;;9.98;;
36691;SDS011;22678;52.052;4.242;2023-05-10T00:18:12;18.33;;;13.05;;
36691;SDS011;22678;52.052;4.242;2023-05-10T00:20:38;20.75;;;13.75;;
36691;SDS011;22678;52.052;4.242;2023-05-10T00:23:03;26.45;;;14.93;;
36691;SDS011;22678;52.052;4.242;2023-05-10T00:25:29;19.23;;;12.80;;
36691;SDS011;22678;52.052;4.242;2023-05-10T00:27:54;21.23;;;12.05;;
36691;SDS011;22678;52.052;4.242;2023-05-10T00:30:22;19.92;;;12.43;;
36691;SDS011;22678;52.052;4.242;2023-05-10T00:32:48;19.73;;;12.65;;
36691;SDS011;22678;52.052;4.242;2023-05-10T00:35:14;18.75;;;11.45;;
36691;SDS011;22678;52.052;4.242;2023-05-10T00:37:40;16.15;;;11.52;;
36691;SDS011;22678;52.052;4.242;2023-05-10T00:40:06;20.83;;;13.82;;
36691;SDS011;22678;52.052;4.242;2023-05-10T00:42:32;21.65;;;12.65;;
36691;SDS011;22678;52.052;4.242;2023-05-10T00:44:57;19.85;;;11.77;;
36691;SDS011;22678;52.052;4.242;2023-05-10T00:47:22;19.98;;;11.98;;
36691;SDS011;22678;52.052;4.242;2023-05-10T00:49:48;23.88;;;14.05;;
36691;SDS011;22678;52.052;4.242;2023-05-10T00:52:14;27.70;;;14.00;;
36691;SDS011;22678;52.052;4.242;2023-05-10T00:54:40;23.83;;;15.23;;
36691;SDS011;22678;52.052;4.242;2023-05-10T00:57:06;23.17;;;15.82;;
36691;SDS011;22678;52.052;4.242;2023-05-10T00:59:31;21.83;;;13.25;;
36691;SDS011;22678;52.052;4.242;2023-05-10T01:01:57;24.17;;;12.95;;
36691;SDS011;22678;52.052;4.242;2023-05-10T01:04:23;25.13;;;15.68;;
36691;SDS011;22678;52.052;4.242;2023-05-10T01:06:50;23.92;;;16.65;;
36691;SDS011;22678;52.052;4.242;2023-05-10T01:09:16;19.70;;;14.00;;
36691;SDS011;22678;52.052;4.242;2023-05-10T01:11:43;21.05;;;12.65;;
36691;SDS011;22678;52.052;4.242;2023-05-10T01:14:08;23.55;;;14.75;;
36691;SDS011;22678;52.052;4.242;2023-05-10T01:16:36;31.15;;;15.30;;
36691;SDS011;22678;52.052;4.242;2023-05-10T01:19:04;24.08;;;16.60;;
36691;SDS011;22678;52.052;4.242;2023-05-10T01:24:46;28.48;;;16.02;;
36691;SDS011;22678;52.052;4.242;2023-05-10T01:42:11;29.15;;;16.23;;
36691;SDS011;22678;52.052;4.242;2023-05-10T01:44:40;32.90;;;16.65;;
36691;SDS011;22678;52.052;4.242;2023-05-10T01:47:12;28.05;;;16.88;;
36691;SDS011;22678;52.052;4.242;2023-05-10T01:49:43;30.27;;;18.20;;
36691;SDS011;22678;52.052;4.242;2023-05-10T01:52:13;30.50;;;17.75;;
36691;SDS011;22678;52.052;4.242;2023-05-10T01:54:43;31.08;;;16.02;;
36691;SDS011;22678;52.052;4.242;2023-05-10T01:57:12;33.95;;;15.73;;
36691;SDS011;22678;52.052;4.242;2023-05-10T01:59:40;26.05;;;15.93;;
36691;SDS011;22678;52.052;4.242;2023-05-10T02:02:08;26.98;;;15.10;;
36691;SDS011;22678;52.052;4.242;2023-05-10T02:04:37;27.02;;;17.17;;
36691;SDS011;22678;52.052;4.242;2023-05-10T02:07:04;30.38;;;17.00;;
36691;SDS011;22678;52.052;4.242;2023-05-10T02:09:32;39.85;;;18.55;;
36691;SDS011;22678;52.052;4.242;2023-05-10T02:12:00;32.47;;;18.08;;
36691;SDS011;22678;52.052;4.242;2023-05-10T02:14:27;23.27;;;14.82;;
36691;SDS011;22678;52.052;4.242;2023-05-10T02:16:55;29.85;;;16.73;;
36691;SDS011;22678;52.052;4.242;2023-05-10T02:19:22;32.70;;;19.05;;
36691;SDS011;22678;52.052;4.242;2023-05-10T02:21:48;30.25;;;18.80;;
36691;SDS011;22678;52.052;4.242;2023-05-10T02:24:16;30.13;;;19.40;;
36691;SDS011;22678;52.052;4.242;2023-05-10T02:26:42;26.90;;;18.50;;
36691;SDS011;22678;52.052;4.242;2023-05-10T02:29:10;29.65;;;17.10;;
36691;SDS011;22678;52.052;4.242;2023-05-10T02:31:37;34.50;;;21.88;;
36691;SDS011;22678;52.052;4.242;2023-05-10T02:34:03;28.92;;;18.95;;
36691;SDS011;22678;52.052;4.242;2023-05-10T02:36:31;31.08;;;17.98;;
36691;SDS011;22678;52.052;4.242;2023-05-10T02:38:58;33.20;;;17.33;;
36691;SDS011;22678;52.052;4.242;2023-05-10T02:41:25;31.80;;;15.55;;
36691;SDS011;22678;52.052;4.242;2023-05-10T02:43:51;26.27;;;16.65;;
36691;SDS011;22678;52.052;4.242;2023-05-10T02:46:22;27.50;;;16.63;;
36691;SDS011;22678;52.052;4.242;2023-05-10T02:48:48;27.63;;;15.13;;
36691;SDS011;22678;52.052;4.242;2023-05-10T02:51:13;29.52;;;16.38;;
36691;SDS011;22678;52.052;4.242;2023-05-10T02:53:42;33.17;;;16.92;;
36691;SDS011;22678;52.052;4.242;2023-05-10T02:56:15;32.00;;;19.60;;
36691;SDS011;22678;52.052;4.242;2023-05-10T02:58:45;31.55;;;16.30;;
36691;SDS011;22678;52.052;4.242;2023-05-10T03:01:11;39.83;;;17.30;;
36691;SDS011;22678;52.052;4.242;2023-05-10T03:03:36;41.70;;;17.50;;
36691;SDS011;22678;52.052;4.242;2023-05-10T03:06:02;36.17;;;18.75;;
36691;SDS011;22678;52.052;4.242;2023-05-10T03:08:27;33.58;;;18.10;;
36691;SDS011;22678;52.052;4.242;2023-05-10T03:10:56;37.72;;;18.08;;
36691;SDS011;22678;52.052;4.242;2023-05-10T03:16:10;47.63;;;19.15;;
36691;SDS011;22678;52.052;4.242;2023-05-10T03:21:38;39.03;;;18.92;;
36691;SDS011;22678;52.052;4.242;2023-05-10T03:24:10;42.47;;;18.47;;
36691;SDS011;22678;52.052;4.242;2023-05-10T03:26:39;40.30;;;16.17;;
36691;SDS011;22678;52.052;4.242;2023-05-10T03:29:05;49.78;;;20.00;;
36691;SDS011;22678;52.052;4.242;2023-05-10T03:31:31;48.28;;;19.13;;
36691;SDS011;22678;52.052;4.242;2023-05-10T03:33:57;38.35;;;16.42;;
36691;SDS011;22678;52.052;4.242;2023-05-10T03:36:23;46.63;;;15.43;;
36691;SDS011;22678;52.052;4.242;2023-05-10T03:38:48;38.65;;;16.02;;
36691;SDS011;22678;52.052;4.242;2023-05-10T03:41:13;47.47;;;13.55;;
36691;SDS011;22678;52.052;4.242;2023-05-10T03:43:39;41.90;;;12.60;;
36691;SDS011;22678;52.052;4.242;2023-05-10T03:46:04;56.25;;;9.45;;
36691;SDS011;22678;52.052;4.242;2023-05-10T03:48:31;37.30;;;8.57;;
36691;SDS011;22678;52.052;4.242;2023-05-10T03:50:57;24.35;;;7.45;;
36691;SDS011;22678;52.052;4.242;2023-05-10T03:53:22;26.77;;;7.18;;
36691;SDS011;22678;52.052;4.242;2023-05-10T03:55:48;34.05;;;7.38;;
36691;SDS011;22678;52.052;4.242;2023-05-10T03:58:13;19.02;;;5.65;;
36691;SDS011;22678;52.052;4.242;2023-05-10T04:00:39;27.10;;;5.85;;
36691;SDS011;22678;52.052;4.242;2023-05-10T04:03:08;16.70;;;6.22;;
36691;SDS011;22678;52.052;4.242;2023-05-10T04:05:34;20.08;;;6.43;;
36691;SDS011;22678;52.052;4.242;2023-05-10T04:08:00;14.98;;;8.27;;
36691;SDS011;22678;52.052;4.242;2023-05-10T04:10:26;19.50;;;6.60;;
36691;SDS011;22678;52.052;4.242;2023-05-10T04:12:51;10.75;;;4.63;;
36691;SDS011;22678;52.052;4.242;2023-05-10T04:15:16;9.98;;;5.10;;
36691;SDS011;22678;52.052;4.242;2023-05-10T04:17:42;11.40;;;4.82;;
36691;SDS011;22678;52.052;4.242;2023-05-10T04:20:07;11.70;;;5.32;;
36691;SDS011;22678;52.052;4.242;2023-05-10T04:22:33;10.48;;;4.72;;
36691;SDS011;22678;52.052;4.242;2023-05-10T04:24:58;10.35;;;6.20;;
36691;SDS011;22678;52.052;4.242;2023-05-10T04:27:23;10.13;;;4.75;;
36691;SDS011;22678;52.052;4.242;2023-05-10T04:29:49;11.73;;;6.22;;
36691;SDS011;22678;52.052;4.242;2023-05-10T04:32:15;14.73;;;6.88;;
36691;SDS011;22678;52.052;4.242;2023-05-10T04:34:42;14.25;;;7.40;;
36691;SDS011;22678;52.052;4.242;2023-05-10T04:37:08;14.45;;;6.90;;
36691;SDS011;22678;52.052;4.242;2023-05-10T04:39:33;13.25;;;6.97;;
36691;SDS011;22678;52.052;4.242;2023-05-10T04:42:00;12.05;;;7.25;;
36691;SDS011;22678;52.052;4.242;2023-05-10T04:44:25;11.57;;;6.75;;
36691;SDS011;22678;52.052;4.242;2023-05-10T04:46:50;12.18;;;6.93;;
36691;SDS011;22678;52.052;4.242;2023-05-10T04:49:16;12.13;;;6.40;;
36691;SDS011;22678;52.052;4.242;2023-05-10T04:51:41;10.00;;;6.38;;
36691;SDS011;22678;52.052;4.242;2023-05-10T04:54:07;8.82;;;4.65;;
36691;SDS011;22678;52.052;4.242;2023-05-10T04:56:32;8.48;;;5.13;;
36691;SDS011;22678;52.052;4.242;2023-05-10T04:58:57;6.75;;;4.30;;
36691;SDS011;22678;52.052;4.242;2023-05-10T05:01:23;6.80;;;3.20;;
36691;SDS011;22678;52.052;4.242;2023-05-10T05:03:48;7.68;;;3.42;;
36691;SDS011;22678;52.052;4.242;2023-05-10T05:06:13;6.40;;;3.85;;
36691;SDS011;22678;52.052;4.242;2023-05-10T05:08:39;8.10;;;3.38;;
36691;SDS011;22678;52.052;4.242;2023-05-10T05:11:04;7.70;;;3.30;;
36691;SDS011;22678;52.052;4.242;2023-05-10T05:13:29;6.47;;;3.20;;
36691;SDS011;22678;52.052;4.242;2023-05-10T05:15:55;6.90;;;4.43;;
36691;SDS011;22678;52.052;4.242;2023-05-10T05:18:20;7.68;;;4.85;;
36691;SDS011;22678;52.052;4.242;2023-05-10T05:20:45;12.07;;;4.68;;
36691;SDS011;22678;52.052;4.242;2023-05-10T05:23:11;10.90;;;4.03;;
36691;SDS011;22678;52.052;4.242;2023-05-10T05:25:36;7.72;;;3.97;;
36691;SDS011;22678;52.052;4.242;2023-05-10T05:28:01;9.07;;;4.25;;
36691;SDS011;22678;52.052;4.242;2023-05-10T05:30:27;9.13;;;4.57;;
36691;SDS011;22678;52.052;4.242;2023-05-10T05:32:52;12.05;;;5.13;;
36691;SDS011;22678;52.052;4.242;2023-05-10T05:35:17;12.32;;;4.65;;
36691;SDS011;22678;52.052;4.242;2023-05-10T05:37:43;10.55;;;5.30;;
36691;SDS011;22678;52.052;4.242;2023-05-10T05:40:11;9.93;;;6.20;;
36691;SDS011;22678;52.052;4.242;2023-05-10T05:42:37;14.05;;;5.53;;
36691;SDS011;22678;52.052;4.242;2023-05-10T05:45:03;16.42;;;8.32;;
36691;SDS011;22678;52.052;4.242;2023-05-10T05:47:29;15.88;;;8.63;;
36691;SDS011;22678;52.052;4.242;2023-05-10T05:49:54;26.52;;;9.00;;
36691;SDS011;22678;52.052;4.242;2023-05-10T05:52:20;19.95;;;9.68;;
36691;SDS011;22678;52.052;4.242;2023-05-10T05:54:46;19.52;;;11.15;;
36691;SDS011;22678;52.052;4.242;2023-05-10T05:57:11;21.02;;;10.20;;
36691;SDS011;22678;52.052;4.242;2023-05-10T05:59:36;18.15;;;8.38;;
36691;SDS011;22678;52.052;4.242;2023-05-10T06:02:06;20.25;;;9.98;;
36691;SDS011;22678;52.052;4.242;2023-05-10T06:04:32;23.25;;;9.43;;
36691;SDS011;22678;52.052;4.242;2023-05-10T06:06:57;18.23;;;9.30;;
36691;SDS011;22678;52.052;4.242;2023-05-10T06:09:23;15.68;;;9.13;;
36691;SDS011;22678;52.052;4.242;2023-05-10T06:11:49;25.10;;;9.00;;
36691;SDS011;22678;52.052;4.242;2023-05-10T06:14:14;12.52;;;8.13;;
36691;SDS011;22678;52.052;4.242;2023-05-10T06:16:40;15.88;;;6.63;;
36691;SDS011;22678;52.052;4.242;2023-05-10T06:19:05;13.48;;;6.38;;
36691;SDS011;22678;52.052;4.242;2023-05-10T06:21:30;18.38;;;6.65;;
36691;SDS011;22678;52.052;4.242;2023-05-10T06:23:56;13.10;;;6.47;;
36691;SDS011;22678;52.052;4.242;2023-05-10T06:26:22;11.90;;;6.93;;
36691;SDS011;22678;52.052;4.242;2023-05-10T06:28:47;12.52;;;6.93;;
36691;SDS011;22678;52.052;4.242;2023-05-10T06:31:13;11.48;;;6.05;;
36691;SDS011;22678;52.052;4.242;2023-05-10T06:33:38;17.42;;;8.57;;
36691;SDS011;22678;52.052;4.242;2023-05-10T06:36:03;13.50;;;8.63;;
36691;SDS011;22678;52.052;4.242;2023-05-10T06:38:29;14.32;;;8.05;;
36691;SDS011;22678;52.052;4.242;2023-05-10T06:40:54;13.57;;;7.85;;
36691;SDS011;22678;52.052;4.242;2023-05-10T06:43:20;15.85;;;6.22;;
36691;SDS011;22678;52.052;4.242;2023-05-10T06:45:45;14.73;;;7.07;;
36691;SDS011;22678;52.052;4.242;2023-05-10T06:48:11;13.25;;;5.88;;
36691;SDS011;22678;52.052;4.242;2023-05-10T06:50:36;14.75;;;6.32;;
36691;SDS011;22678;52.052;4.242;2023-05-10T06:53:01;12.05;;;4.85;;
36691;SDS011;22678;52.052;4.242;2023-05-10T06:55:27;10.63;;;5.10;;
36691;SDS011;22678;52.052;4.242;2023-05-10T06:57:53;11.35;;;5.72;;
36691;SDS011;22678;52.052;4.242;2023-05-10T07:00:18;9.63;;;5.05;;
36691;SDS011;22678;52.052;4.242;2023-05-10T07:02:44;8.00;;;4.85;;
36691;SDS011;22678;52.052;4.242;2023-05-10T07:05:10;9.43;;;5.15;;
36691;SDS011;22678;52.052;4.242;2023-05-10T07:07:35;13.35;;;6.03;;
36691;SDS011;22678;52.052;4.242;2023-05-10T07:10:01;8.90;;;5.13;;
36691;SDS011;22678;52.052;4.242;2023-05-10T07:12:26;8.02;;;4.13;;
36691;SDS011;22678;52.052;4.242;2023-05-10T07:14:52;13.20;;;4.55;;
36691;SDS011;22678;52.052;4.242;2023-05-10T07:17:17;10.02;;;4.75;;
36691;SDS011;22678;52.052;4.242;2023-05-10T07:19:43;6.38;;;3.97;;
36691;SDS011;22678;52.052;4.242;2023-05-10T07:22:09;8.80;;;4.15;;
36691;SDS011;22678;52.052;4.242;2023-05-10T07:24:34;5.43;;;3.47;;
36691;SDS011;22678;52.052;4.242;2023-05-10T07:26:59;4.30;;;1.77;;
36691;SDS011;22678;52.052;4.242;2023-05-10T07:29:25;5.03;;;2.70;;
36691;SDS011;22678;52.052;4.242;2023-05-10T07:31:50;5.47;;;2.25;;
36691;SDS011;22678;52.052;4.242;2023-05-10T07:34:16;3.55;;;1.73;;
36691;SDS011;22678;52.052;4.242;2023-05-10T07:36:41;3.97;;;1.67;;
36691;SDS011;22678;52.052;4.242;2023-05-10T07:39:06;4.10;;;1.70;;
36691;SDS011;22678;52.052;4.242;2023-05-10T07:41:32;2.78;;;1.50;;
36691;SDS011;22678;52.052;4.242;2023-05-10T07:43:57;3.40;;;1.45;;
36691;SDS011;22678;52.052;4.242;2023-05-10T07:46:23;4.85;;;1.80;;
36691;SDS011;22678;52.052;4.242;2023-05-10T07:48:48;4.60;;;2.47;;
36691;SDS011;22678;52.052;4.242;2023-05-10T07:51:13;7.50;;;2.47;;
36691;SDS011;22678;52.052;4.242;2023-05-10T07:53:39;6.35;;;1.67;;
36691;SDS011;22678;52.052;4.242;2023-05-10T07:56:37;8.45;;;2.05;;
36691;SDS011;22678;52.052;4.242;2023-05-10T07:58:57;7.75;;;3.72;;
36691;SDS011;22678;52.052;4.242;2023-05-10T08:01:23;10.20;;;4.57;;
36691;SDS011;22678;52.052;4.242;2023-05-10T08:03:49;9.82;;;3.97;;
36691;SDS011;22678;52.052;4.242;2023-05-10T08:06:16;7.47;;;4.40;;
36691;SDS011;22678;52.052;4.242;2023-05-10T08:08:42;10.02;;;5.45;;
36691;SDS011;22678;52.052;4.242;2023-05-10T08:11:08;12.13;;;6.65;;
36691;SDS011;22678;52.052;4.242;2023-05-10T08:13:33;10.70;;;5.03;;
36691;SDS011;22678;52.052;4.242;2023-05-10T08:15:59;14.07;;;5.05;;
36691;SDS011;22678;52.052;4.242;2023-05-10T08:18:24;9.32;;;5.22;;
36691;SDS011;22678;52.052;4.242;2023-05-10T08:20:49;13.35;;;4.25;;
36691;SDS011;22678;52.052;4.242;2023-05-10T08:23:15;8.30;;;3.80;;
36691;SDS011;22678;52.052;4.242;2023-05-10T08:25:40;6.53;;;4.30;;
36691;SDS011;22678;52.052;4.242;2023-05-10T08:28:05;11.60;;;6.03;;
36691;SDS011;22678;52.052;4.242;2023-05-10T08:30:31;9.55;;;4.72;;
36691;SDS011;22678;52.052;4.242;2023-05-10T08:32:56;11.40;;;4.75;;
36691;SDS011;22678;52.052;4.242;2023-05-10T08:35:21;10.30;;;3.60;;
36691;SDS011;22678;52.052;4.242;2023-05-10T08:37:47;9.65;;;4.30;;
36691;SDS011;22678;52.052;4.242;2023-05-10T08:40:12;8.45;;;3.20;;
36691;SDS011;22678;52.052;4.242;2023-05-10T08:42:40;9.27;;;4.38;;
36691;SDS011;22678;52.052;4.242;2023-05-10T08:45:10;7.85;;;3.63;;
36691;SDS011;22678;52.052;4.242;2023-05-10T08:47:36;8.35;;;3.92;;
36691;SDS011;22678;52.052;4.242;2023-05-10T08:50:03;7.57;;;3.70;;
36691;SDS011;22678;52.052;4.242;2023-05-10T08:52:28;6.53;;;3.92;;
36691;SDS011;22678;52.052;4.242;2023-05-10T08:54:55;8.65;;;2.92;;
36691;SDS011;22678;52.052;4.242;2023-05-10T08:57:21;5.75;;;2.63;;
36691;SDS011;22678;52.052;4.242;2023-05-10T08:59:47;8.50;;;2.47;;
36691;SDS011;22678;52.052;4.242;2023-05-10T09:02:12;5.60;;;2.78;;
36691;SDS011;22678;52.052;4.242;2023-05-10T09:04:38;7.15;;;1.90;;
36691;SDS011;22678;52.052;4.242;2023-05-10T09:07:04;8.88;;;2.53;;
36691;SDS011;22678;52.052;4.242;2023-05-10T09:09:29;8.05;;;3.17;;
36691;SDS011;22678;52.052;4.242;2023-05-10T09:11:56;9.98;;;3.08;;
36691;SDS011;22678;52.052;4.242;2023-05-10T09:14:21;7.15;;;3.08;;
36691;SDS011;22678;52.052;4.242;2023-05-10T09:16:49;8.05;;;3.90;;
36691;SDS011;22678;52.052;4.242;2023-05-10T09:19:14;8.85;;;3.28;;
36691;SDS011;22678;52.052;4.242;2023-05-10T09:21:40;11.38;;;3.92;;
36691;SDS011;22678;52.052;4.242;2023-05-10T09:24:06;12.18;;;3.40;;
36691;SDS011;22678;52.052;4.242;2023-05-10T09:26:32;7.22;;;3.80;;
36691;SDS011;22678;52.052;4.242;2023-05-10T09:28:58;7.95;;;3.00;;
36691;SDS011;22678;52.052;4.242;2023-05-10T09:31:25;5.57;;;2.03;;
36691;SDS011;22678;52.052;4.242;2023-05-10T09:34:09;10.48;;;3.58;;
36691;SDS011;22678;52.052;4.242;2023-05-10T09:36:35;6.05;;;2.40;;
36691;SDS011;22678;52.052;4.242;2023-05-10T09:39:00;6.00;;;3.22;;
36691;SDS011;22678;52.052;4.242;2023-05-10T09:41:25;7.50;;;3.78;;
36691;SDS011;22678;52.052;4.242;2023-05-10T09:43:55;6.05;;;2.90;;
36691;SDS011;22678;52.052;4.242;2023-05-10T09:46:21;10.23;;;3.55;;
36691;SDS011;22678;52.052;4.242;2023-05-10T09:48:47;7.13;;;2.90;;
36691;SDS011;22678;52.052;4.242;2023-05-10T09:51:22;6.65;;;2.90;;
36691;SDS011;22678;52.052;4.242;2023-05-10T09:54:09;10.65;;;3.55;;
36691;SDS011;22678;52.052;4.242;2023-05-10T09:56:36;8.73;;;3.25;;
36691;SDS011;22678;52.052;4.242;2023-05-10T09:59:03;13.10;;;4.38;;
36691;SDS011;22678;52.052;4.242;2023-05-10T10:01:30;6.63;;;2.95;;
36691;SDS011;22678;52.052;4.242;2023-05-10T10:03:55;6.60;;;2.63;;
36691;SDS011;22678;52.052;4.242;2023-05-10T10:06:22;7.38;;;2.55;;
36691;SDS011;22678;52.052;4.242;2023-05-10T10:08:48;6.68;;;2.72;;
36691;SDS011;22678;52.052;4.242;2023-05-10T10:11:14;7.43;;;3.00;;
36691;SDS011;22678;52.052;4.242;2023-05-10T10:13:39;4.50;;;2.63;;
36691;SDS011;22678;52.052;4.242;2023-05-10T10:16:05;7.30;;;2.97;;
36691;SDS011;22678;52.052;4.242;2023-05-10T10:18:32;8.15;;;3.80;;
36691;SDS011;22678;52.052;4.242;2023-05-10T10:20:58;4.88;;;3.33;;
36691;SDS011;22678;52.052;4.242;2023-05-10T10:23:24;7.18;;;4.10;;
36691;SDS011;22678;52.052;4.242;2023-05-10T10:25:49;7.40;;;3.75;;
36691;SDS011;22678;52.052;4.242;2023-05-10T10:28:24;5.38;;;2.95;;
36691;SDS011;22678;52.052;4.242;2023-05-10T10:30:57;10.77;;;3.40;;
36691;SDS011;22678;52.052;4.242;2023-05-10T10:33:40;7.57;;;3.88;;
36691;SDS011;22678;52.052;4.242;2023-05-10T10:36:19;9.55;;;4.53;;
36691;SDS011;22678;52.052;4.242;2023-05-10T10:47:06;13.70;;;3.67;;
36691;SDS011;22678;52.052;4.242;2023-05-10T10:49:42;7.78;;;3.67;;
36691;SDS011;22678;52.052;4.242;2023-05-10T10:55:03;6.68;;;3.85;;
36691;SDS011;22678;52.052;4.242;2023-05-10T11:05:39;7.80;;;4.30;;
36691;SDS011;22678;52.052;4.242;2023-05-10T11:08:09;6.30;;;4.45;;
36691;SDS011;22678;52.052;4.242;2023-05-10T11:10:36;15.05;;;7.13;;
36691;SDS011;22678;52.052;4.242;2023-05-10T11:13:04;11.77;;;4.07;;
36691;SDS011;22678;52.052;4.242;2023-05-10T11:15:38;14.57;;;4.00;;
36691;SDS011;22678;52.052;4.242;2023-05-10T11:18:23;9.35;;;4.57;;
36691;SDS011;22678;52.052;4.242;2023-05-10T11:20:50;15.18;;;6.60;;
36691;SDS011;22678;52.052;4.242;2023-05-10T11:23:16;10.05;;;5.30;;
36691;SDS011;22678;52.052;4.242;2023-05-10T11:25:43;12.27;;;5.25;;
36691;SDS011;22678;52.052;4.242;2023-05-10T11:28:09;15.20;;;5.93;;
36691;SDS011;22678;52.052;4.242;2023-05-10T11:30:36;10.45;;;5.50;;
36691;SDS011;22678;52.052;4.242;2023-05-10T11:33:03;8.60;;;4.00;;
36691;SDS011;22678;52.052;4.242;2023-05-10T11:35:28;7.75;;;3.85;;
36691;SDS011;22678;52.052;4.242;2023-05-10T11:37:53;11.38;;;3.53;;
36691;SDS011;22678;52.052;4.242;2023-05-10T11:40:21;10.88;;;4.72;;
36691;SDS011;22678;52.052;4.242;2023-05-10T11:42:48;10.63;;;5.35;;
36691;SDS011;22678;52.052;4.242;2023-05-10T11:45:13;10.23;;;5.20;;
36691;SDS011;22678;52.052;4.242;2023-05-10T11:47:39;11.70;;;5.80;;
36691;SDS011;22678;52.052;4.242;2023-05-10T11:50:06;13.27;;;5.15;;
36691;SDS011;22678;52.052;4.242;2023-05-10T11:52:35;10.90;;;5.68;;
36691;SDS011;22678;52.052;4.242;2023-05-10T11:55:01;14.50;;;4.20;;
36691;SDS011;22678;52.052;4.242;2023-05-10T11:57:27;13.00;;;3.53;;
36691;SDS011;22678;52.052;4.242;2023-05-10T11:59:53;15.13;;;6.40;;
36691;SDS011;22678;52.052;4.242;2023-05-10T12:02:20;12.60;;;4.85;;
36691;SDS011;22678;52.052;4.242;2023-05-10T12:04:45;9.18;;;3.60;;
36691;SDS011;22678;52.052;4.242;2023-05-10T12:07:11;9.25;;;4.03;;
36691;SDS011;22678;52.052;4.242;2023-05-10T12:09:36;8.80;;;4.22;;
36691;SDS011;22678;52.052;4.242;2023-05-10T12:12:02;8.65;;;4.05;;
36691;SDS011;22678;52.052;4.242;2023-05-10T12:14:27;11.60;;;4.43;;
36691;SDS011;22678;52.052;4.242;2023-05-10T12:16:53;12.65;;;6.00;;
36691;SDS011;22678;52.052;4.242;2023-05-10T12:19:19;10.10;;;4.68;;
36691;SDS011;22678;52.052;4.242;2023-05-10T12:21:47;9.35;;;3.97;;
36691;SDS011;22678;52.052;4.242;2023-05-10T12:24:13;15.65;;;6.60;;
36691;SDS011;22678;52.052;4.242;2023-05-10T12:26:42;8.90;;;3.97;;
36691;SDS011;22678;52.052;4.242;2023-05-10T12:29:15;13.40;;;4.90;;
36691;SDS011;22678;52.052;4.242;2023-05-10T12:36:55;12.52;;;5.28;;
36691;SDS011;22678;52.052;4.242;2023-05-10T12:39:21;9.98;;;4.25;;
36691;SDS011;22678;52.052;4.242;2023-05-10T12:41:46;13.20;;;5.53;;
36691;SDS011;22678;52.052;4.242;2023-05-10T12:44:11;11.60;;;4.10;;
36691;SDS011;22678;52.052;4.242;2023-05-10T12:46:37;7.85;;;4.25;;
36691;SDS011;22678;52.052;4.242;2023-05-10T12:49:02;11.07;;;4.15;;
36691;SDS011;22678;52.052;4.242;2023-05-10T12:51:27;7.63;;;3.65;;
36691;SDS011;22678;52.052;4.242;2023-05-10T12:53:53;9.88;;;3.92;;
36691;SDS011;22678;52.052;4.242;2023-05-10T12:56:19;7.88;;;3.25;;
36691;SDS011;22678;52.052;4.242;2023-05-10T12:58:45;8.70;;;3.58;;
36691;SDS011;22678;52.052;4.242;2023-05-10T13:01:12;8.93;;;3.67;;
36691;SDS011;22678;52.052;4.242;2023-05-10T13:03:38;7.30;;;4.03;;
36691;SDS011;22678;52.052;4.242;2023-05-10T13:06:04;9.25;;;3.83;;
36691;SDS011;22678;52.052;4.242;2023-05-10T13:08:29;6.22;;;3.72;;
36691;SDS011;22678;52.052;4.242;2023-05-10T13:10:58;6.97;;;3.72;;
36691;SDS011;22678;52.052;4.242;2023-05-10T13:13:24;7.40;;;3.42;;
36691;SDS011;22678;52.052;4.242;2023-05-10T13:15:49;7.32;;;3.33;;
36691;SDS011;22678;52.052;4.242;2023-05-10T13:18:14;9.32;;;3.88;;
36691;SDS011;22678;52.052;4.242;2023-05-10T13:20:40;7.32;;;3.03;;
36691;SDS011;22678;52.052;4.242;2023-05-10T13:23:05;8.10;;;2.72;;
36691;SDS011;22678;52.052;4.242;2023-05-10T13:25:30;9.40;;;3.40;;
36691;SDS011;22678;52.052;4.242;2023-05-10T13:27:56;7.05;;;3.38;;
36691;SDS011;22678;52.052;4.242;2023-05-10T13:30:21;6.22;;;2.22;;
36691;SDS011;22678;52.052;4.242;2023-05-10T13:32:47;6.32;;;1.73;;
36691;SDS011;22678;52.052;4.242;2023-05-10T13:35:13;9.23;;;4.20;;
36691;SDS011;22678;52.052;4.242;2023-05-10T13:37:38;8.32;;;3.25;;
36691;SDS011;22678;52.052;4.242;2023-05-10T13:40:05;6.35;;;2.45;;
36691;SDS011;22678;52.052;4.242;2023-05-10T13:42:31;5.68;;;2.47;;
36691;SDS011;22678;52.052;4.242;2023-05-10T13:44:58;3.60;;;2.55;;
36691;SDS011;22678;52.052;4.242;2023-05-10T13:47:23;5.25;;;2.20;;
36691;SDS011;22678;52.052;4.242;2023-05-10T13:49:49;6.55;;;2.85;;
36691;SDS011;22678;52.052;4.242;2023-05-10T13:52:14;8.30;;;2.90;;
36691;SDS011;22678;52.052;4.242;2023-05-10T13:54:39;6.03;;;2.35;;
36691;SDS011;22678;52.052;4.242;2023-05-10T13:57:05;5.03;;;2.45;;
36691;SDS011;22678;52.052;4.242;2023-05-10T13:59:31;6.85;;;3.25;;
36691;SDS011;22678;52.052;4.242;2023-05-10T14:01:57;7.50;;;2.70;;
36691;SDS011;22678;52.052;4.242;2023-05-10T14:04:23;5.45;;;2.40;;
36691;SDS011;22678;52.052;4.242;2023-05-10T14:06:49;5.95;;;2.13;;
36691;SDS011;22678;52.052;4.242;2023-05-10T14:09:14;4.47;;;1.92;;
36691;SDS011;22678;52.052;4.242;2023-05-10T14:11:39;6.57;;;2.85;;
36691;SDS011;22678;52.052;4.242;2023-05-10T14:14:08;6.68;;;4.05;;
36691;SDS011;22678;52.052;4.242;2023-05-10T14:16:33;6.60;;;2.28;;
36691;SDS011;22678;52.052;4.242;2023-05-10T14:18:59;5.05;;;2.35;;
36691;SDS011;22678;52.052;4.242;2023-05-10T14:21:24;6.60;;;2.95;;
36691;SDS011;22678;52.052;4.242;2023-05-10T14:23:50;6.18;;;2.08;;
36691;SDS011;22678;52.052;4.242;2023-05-10T14:26:15;5.07;;;1.92;;
36691;SDS011;22678;52.052;4.242;2023-05-10T14:28:41;6.10;;;2.10;;
36691;SDS011;22678;52.052;4.242;2023-05-10T14:31:06;4.28;;;1.88;;
36691;SDS011;22678;52.052;4.242;2023-05-10T14:33:31;4.35;;;2.03;;
36691;SDS011;22678;52.052;4.242;2023-05-10T14:35:57;5.80;;;1.98;;
36691;SDS011;22678;52.052;4.242;2023-05-10T14:38:22;5.88;;;2.50;;
36691;SDS011;22678;52.052;4.242;2023-05-10T14:40:48;5.78;;;2.83;;
36691;SDS011;22678;52.052;4.242;2023-05-10T14:43:13;7.45;;;2.40;;
36691;SDS011;22678;52.052;4.242;2023-05-10T14:45:39;5.57;;;3.35;;
36691;SDS011;22678;52.052;4.242;2023-05-10T14:48:04;7.80;;;3.85;;
36691;SDS011;22678;52.052;4.242;2023-05-10T14:50:30;7.25;;;4.93;;
36691;SDS011;22678;52.052;4.242;2023-05-10T14:52:56;5.80;;;3.22;;
36691;SDS011;22678;52.052;4.242;2023-05-10T14:55:22;8.48;;;2.97;;
36691;SDS011;22678;52.052;4.242;2023-05-10T14:57:47;6.25;;;2.58;;
36691;SDS011;22678;52.052;4.242;2023-05-10T15:00:15;5.10;;;2.45;;
36691;SDS011;22678;52.052;4.242;2023-05-10T15:02:40;9.70;;;4.10;;
36691;SDS011;22678;52.052;4.242;2023-05-10T15:05:06;4.68;;;1.70;;
36691;SDS011;22678;52.052;4.242;2023-05-10T15:07:32;4.22;;;2.22;;
36691;SDS011;22678;52.052;4.242;2023-05-10T15:09:57;5.25;;;2.70;;
36691;SDS011;22678;52.052;4.242;2023-05-10T15:12:22;6.22;;;2.67;;
36691;SDS011;22678;52.052;4.242;2023-05-10T15:14:48;5.82;;;2.80;;
36691;SDS011;22678;52.052;4.242;2023-05-10T15:17:13;5.22;;;2.50;;
36691;SDS011;22678;52.052;4.242;2023-05-10T15:19:38;4.75;;;2.95;;
36691;SDS011;22678;52.052;4.242;2023-05-10T15:22:04;7.75;;;3.80;;